Time;durP1;ratioP1;P1;durP2;ratioP2;P2;SDS_P1;SDS_P2;PMS_P1;PMS_P2;Temp;Humidity;BMP_temperature;BMP_pressure;BME280_temperature;BME280_humidity;BME280_pressure;Samples;Min_cycle;Max_cycle;Signal;HPM_P1;HPM_P2
2023/08/02 00:01:38;;;;;;;7.35;2.30;;;23.90;71.70;;;;;;6106654;28;80120;-58
2023/08/02 00:04:38;;;;;;;3.20;2.00;;;23.90;71.80;;;;;;6099781;28;80834;-57
2023/08/02 00:07:39;;;;;;;2.97;1.88;;;24.00;71.90;;;;;;6110576;28;80574;-58
2023/08/02 00:10:39;;;;;;;3.00;2.10;;;24.00;72.60;;;;;;6149912;28;80515;-58
2023/08/02 00:13:40;;;;;;;2.95;2.10;;;23.90;71.90;;;;;;6099804;28;82590;-57
2023/08/02 00:16:40;;;;;;;2.53;1.80;;;24.00;71.80;;;;;;6105154;28;80409;-58
2023/08/02 00:19:41;;;;;;;2.83;1.65;;;23.90;71.90;;;;;;6095731;28;81417;-58
2023/08/02 00:22:41;;;;;;;5.40;2.05;;;23.90;72.20;;;;;;6121383;28;81449;-58
2023/08/02 00:25:42;;;;;;;3.42;2.13;;;24.00;71.80;;;;;;6118728;28;82218;-59
2023/08/02 00:28:42;;;;;;;2.30;1.60;;;23.90;71.70;;;;;;6128029;28;80727;-66
2023/08/02 00:31:43;;;;;;;1.83;1.60;;;23.90;71.70;;;;;;6130415;28;82491;-65
2023/08/02 00:34:43;;;;;;;2.72;1.73;;;23.90;71.60;;;;;;6095067;28;80362;-65
2023/08/02 00:37:44;;;;;;;4.20;2.20;;;23.90;71.70;;;;;;6125822;28;80901;-65
2023/08/02 00:40:45;;;;;;;2.00;1.65;;;23.90;71.60;;;;;;6118720;28;81864;-66
2023/08/02 00:43:46;;;;;;;2.72;1.88;;;23.90;71.70;;;;;;6127135;28;83218;-65
2023/08/02 00:46:47;;;;;;;2.80;2.20;;;23.90;71.60;;;;;;6105313;28;83141;-65
2023/08/02 00:49:47;;;;;;;2.58;1.80;;;23.90;71.50;;;;;;6119529;28;81325;-65
2023/08/02 00:52:48;;;;;;;3.65;2.20;;;23.90;71.50;;;;;;6105072;28;81329;-66
2023/08/02 00:55:48;;;;;;;2.70;2.00;;;23.90;71.50;;;;;;6110805;28;80858;-67
2023/08/02 00:58:49;;;;;;;2.55;2.10;;;23.90;71.50;;;;;;6105935;28;80693;-65
2023/08/02 01:01:49;;;;;;;4.35;2.50;;;23.90;71.50;;;;;;6121745;28;82100;-67
2023/08/02 01:04:50;;;;;;;2.60;1.80;;;23.90;71.50;;;;;;6141303;28;83033;-66
2023/08/02 01:07:50;;;;;;;2.53;1.70;;;23.90;71.50;;;;;;6144370;28;82593;-66
2023/08/02 01:10:51;;;;;;;3.95;2.10;;;23.90;71.40;;;;;;6114913;28;80989;-65
2023/08/02 01:13:51;;;;;;;3.38;2.00;;;23.90;71.40;;;;;;6103580;28;82309;-67
2023/08/02 01:16:52;;;;;;;2.38;1.80;;;23.90;71.40;;;;;;6104021;28;81507;-67
2023/08/02 01:19:52;;;;;;;3.95;1.92;;;23.90;71.40;;;;;;6110431;28;82521;-66
2023/08/02 01:22:53;;;;;;;2.33;1.88;;;23.90;71.30;;;;;;6108422;28;82406;-66
2023/08/02 01:25:54;;;;;;;2.53;1.70;;;23.90;71.30;;;;;;6122031;28;82478;-66
2023/08/02 01:28:55;;;;;;;3.90;1.70;;;23.90;71.40;;;;;;6127070;28;83399;-67
2023/08/02 01:31:55;;;;;;;2.33;1.80;;;23.90;71.30;;;;;;6114443;28;80532;-66
2023/08/02 01:34:56;;;;;;;2.63;1.95;;;23.90;71.40;;;;;;6115511;28;80827;-66
2023/08/02 01:37:56;;;;;;;2.53;1.95;;;23.90;71.40;;;;;;6100396;28;83469;-66
2023/08/02 01:40:57;;;;;;;2.80;2.05;;;23.90;71.30;;;;;;6109699;28;83462;-67
2023/08/02 01:43:58;;;;;;;3.20;2.50;;;23.90;71.30;;;;;;6120318;28;82339;-66
2023/08/02 01:46:58;;;;;;;2.95;2.28;;;23.90;71.40;;;;;;6125541;28;81419;-67
2023/08/02 01:49:59;;;;;;;2.75;2.00;;;23.90;71.60;;;;;;6135940;28;82002;-67
2023/08/02 01:52:59;;;;;;;7.10;2.40;;;23.90;71.40;;;;;;6131447;28;83440;-66
2023/08/02 01:56:00;;;;;;;3.45;2.33;;;23.90;71.40;;;;;;6132337;28;80196;-66
2023/08/02 01:59:00;;;;;;;4.80;2.53;;;23.90;71.50;;;;;;6097592;28;83045;-62
2023/08/02 02:02:01;;;;;;;3.78;1.90;;;23.90;71.60;;;;;;6128660;28;81657;-65
2023/08/02 02:05:02;;;;;;;2.85;2.17;;;23.90;71.60;;;;;;6112025;28;82774;-67
2023/08/02 02:08:02;;;;;;;2.78;2.13;;;23.90;71.50;;;;;;6128236;28;85148;-67
2023/08/02 02:11:04;;;;;;;3.50;2.40;;;23.90;71.40;;;;;;6119856;28;82952;-68
2023/08/02 02:14:05;;;;;;;2.55;2.15;;;23.80;71.50;;;;;;6128984;28;86870;-67
2023/08/02 02:17:05;;;;;;;2.75;1.98;;;23.90;71.50;;;;;;6119742;28;80651;-48
2023/08/02 02:20:06;;;;;;;3.05;2.10;;;23.90;71.50;;;;;;6110430;28;83096;-50
2023/08/02 02:23:06;;;;;;;3.33;2.38;;;23.80;71.50;;;;;;6126607;28;80693;-48
2023/08/02 02:26:07;;;;;;;6.03;2.70;;;23.80;71.60;;;;;;6120163;28;81109;-45
2023/08/02 02:29:07;;;;;;;3.58;2.45;;;23.90;71.40;;;;;;6130819;28;82661;-47
2023/08/02 02:32:08;;;;;;;4.63;2.85;;;23.80;71.30;;;;;;6120808;28;80574;-48
2023/08/02 02:35:12;;;;;;;3.55;1.98;;;23.80;71.40;;;;;;6119199;28;81466;-59
2023/08/02 02:38:13;;;;;;;2.63;2.30;;;23.90;71.40;;;;;;6128162;28;83947;-58
2023/08/02 02:41:13;;;;;;;3.70;2.42;;;23.80;71.40;;;;;;6120417;28;82257;-58
2023/08/02 02:44:14;;;;;;;2.28;2.08;;;23.90;71.50;;;;;;6129883;28;86016;-60
2023/08/02 02:47:14;;;;;;;5.13;2.55;;;23.90;71.40;;;;;;6118963;28;81867;-59
2023/08/02 02:50:15;;;;;;;3.03;2.35;;;23.90;71.30;;;;;;6112485;28;83371;-59
2023/08/02 02:53:16;;;;;;;3.30;2.15;;;23.90;71.30;;;;;;6109932;28;81198;-59
2023/08/02 02:56:17;;;;;;;2.85;2.35;;;23.80;71.20;;;;;;6128543;28;80911;-66
2023/08/02 02:59:17;;;;;;;3.38;2.13;;;23.90;71.20;;;;;;6108764;28;81078;-66
2023/08/02 03:02:18;;;;;;;5.13;2.40;;;23.90;71.30;;;;;;6098149;28;80363;-67
2023/08/02 03:05:18;;;;;;;2.92;2.53;;;23.90;71.20;;;;;;6130570;28;81562;-66
2023/08/02 03:08:19;;;;;;;4.05;2.67;;;23.80;71.20;;;;;;6120258;28;82237;-66
2023/08/02 03:11:19;;;;;;;3.17;2.30;;;23.80;71.20;;;;;;6170344;28;81438;-66
2023/08/02 03:14:20;;;;;;;4.30;2.20;;;23.90;71.10;;;;;;6127348;28;81979;-58
2023/08/02 03:17:20;;;;;;;3.22;2.28;;;23.80;71.10;;;;;;6128803;28;80833;-58
2023/08/02 03:20:21;;;;;;;4.30;2.25;;;23.80;71.10;;;;;;6126972;28;80730;-58
2023/08/02 03:23:21;;;;;;;4.80;2.45;;;23.80;71.00;;;;;;6120446;28;81275;-58
2023/08/02 03:26:22;;;;;;;5.20;2.60;;;23.80;71.10;;;;;;6140516;28;80253;-59
2023/08/02 03:29:22;;;;;;;3.00;2.50;;;23.80;71.10;;;;;;6125636;28;80450;-60
2023/08/02 03:32:23;;;;;;;4.85;2.75;;;23.80;71.10;;;;;;6132751;28;81189;-67
2023/08/02 03:35:24;;;;;;;3.65;2.60;;;23.80;71.10;;;;;;6136224;28;83359;-67
2023/08/02 03:38:24;;;;;;;4.43;2.42;;;23.80;71.20;;;;;;6165736;28;82971;-68
2023/08/02 03:41:25;;;;;;;3.45;2.47;;;23.80;71.20;;;;;;6127357;28;80612;-66
2023/08/02 03:44:25;;;;;;;3.20;2.60;;;23.80;71.20;;;;;;6119536;28;84138;-67
2023/08/02 03:47:26;;;;;;;2.80;2.35;;;23.80;71.20;;;;;;6140362;28;80992;-68
2023/08/02 03:50:26;;;;;;;3.53;2.33;;;23.80;71.10;;;;;;6119025;28;83102;-58
2023/08/02 03:53:27;;;;;;;2.70;2.38;;;23.80;71.20;;;;;;6127252;28;80589;-59
2023/08/02 03:56:27;;;;;;;2.65;2.30;;;23.80;71.10;;;;;;6131147;28;82818;-58
2023/08/02 03:59:28;;;;;;;4.88;2.53;;;23.80;71.10;;;;;;6112218;28;80275;-57
2023/08/02 04:02:28;;;;;;;2.45;2.13;;;23.80;71.10;;;;;;6106850;28;80914;-59
2023/08/02 04:05:29;;;;;;;3.42;2.53;;;23.80;71.10;;;;;;6118065;28;82907;-58
2023/08/02 04:08:29;;;;;;;2.55;2.05;;;23.80;71.10;;;;;;6129308;28;80591;-66
2023/08/02 04:11:31;;;;;;;6.28;2.50;;;23.80;71.10;;;;;;6100304;28;82263;-66
2023/08/02 04:14:31;;;;;;;3.25;2.42;;;23.80;71.00;;;;;;6108029;28;80815;-65
2023/08/02 04:17:32;;;;;;;3.95;2.50;;;23.80;70.90;;;;;;6111971;28;83115;-65
2023/08/02 04:20:32;;;;;;;3.55;2.53;;;23.80;70.90;;;;;;6115261;28;80883;-66
2023/08/02 04:23:33;;;;;;;3.08;2.65;;;23.80;71.00;;;;;;6108668;28;80024;-67
2023/08/02 04:26:33;;;;;;;5.05;2.60;;;23.80;71.00;;;;;;6098420;28;82183;-66
2023/08/02 04:29:34;;;;;;;5.60;2.25;;;23.80;71.00;;;;;;6106495;28;80903;-67
2023/08/02 04:32:34;;;;;;;3.47;2.60;;;23.80;71.00;;;;;;6105547;28;82835;-67
2023/08/02 04:35:35;;;;;;;3.40;2.55;;;23.90;71.10;;;;;;6109127;28;80472;-67
2023/08/02 04:38:35;;;;;;;3.20;2.47;;;23.80;70.90;;;;;;6108256;28;81731;-67
2023/08/02 04:41:36;;;;;;;3.38;2.10;;;23.90;71.00;;;;;;6109830;28;80225;-68
2023/08/02 04:44:36;;;;;;;3.70;2.53;;;23.90;71.00;;;;;;6117224;28;80459;-68
2023/08/02 04:47:37;;;;;;;3.17;2.35;;;23.90;71.10;;;;;;6105131;28;80158;-68
2023/08/02 04:50:37;;;;;;;5.60;2.70;;;23.90;71.10;;;;;;6131255;28;80480;-67
2023/08/02 04:53:38;;;;;;;2.92;2.33;;;23.90;71.10;;;;;;6122527;28;81330;-68
2023/08/02 04:56:38;;;;;;;3.47;2.30;;;23.90;71.20;;;;;;6141405;28;83140;-68
2023/08/02 04:59:39;;;;;;;4.65;2.50;;;23.90;71.00;;;;;;6108199;28;83299;-69
2023/08/02 05:02:39;;;;;;;4.32;3.15;;;23.90;71.10;;;;;;6116057;28;81062;-68
2023/08/02 05:05:40;;;;;;;4.13;2.78;;;23.90;71.00;;;;;;6125496;28;81115;-68
2023/08/02 05:08:40;;;;;;;9.80;3.13;;;23.90;71.00;;;;;;6099873;28;82052;-67
2023/08/02 05:11:41;;;;;;;4.05;2.70;;;23.90;70.90;;;;;;6134013;28;84918;-65
2023/08/02 05:14:42;;;;;;;3.55;2.47;;;23.90;71.30;;;;;;6101855;28;81070;-64
2023/08/02 05:17:42;;;;;;;11.38;2.65;;;23.90;71.10;;;;;;6114454;28;81156;-66
2023/08/02 05:20:43;;;;;;;4.13;2.83;;;24.00;71.20;;;;;;6120907;28;80426;-66
2023/08/02 05:23:43;;;;;;;7.00;2.47;;;24.00;71.00;;;;;;6109960;28;82655;-65
2023/08/02 05:26:44;;;;;;;4.53;3.13;;;24.00;70.90;;;;;;6116813;28;80626;-65
2023/08/02 05:29:44;;;;;;;4.22;2.72;;;24.00;70.70;;;;;;6102791;28;82410;-66
2023/08/02 05:32:45;;;;;;;4.82;3.22;;;24.00;70.70;;;;;;6111410;28;80356;-65
2023/08/02 05:35:45;;;;;;;4.22;2.72;;;24.00;70.60;;;;;;6116246;28;82607;-65
2023/08/02 05:38:46;;;;;;;6.43;3.03;;;24.00;70.70;;;;;;6119888;28;80928;-59
2023/08/02 05:41:46;;;;;;;3.40;2.70;;;24.00;71.10;;;;;;6119189;28;80643;-65
2023/08/02 05:44:47;;;;;;;5.65;3.00;;;24.00;70.20;;;;;;6114065;28;83690;-65
2023/08/02 05:47:47;;;;;;;6.75;2.78;;;24.00;70.00;;;;;;6139525;28;80635;-64
2023/08/02 05:50:48;;;;;;;7.43;2.58;;;24.00;70.00;;;;;;6125920;28;81073;-68
2023/08/02 05:53:48;;;;;;;4.93;2.75;;;24.00;70.10;;;;;;6128961;28;80407;-68
2023/08/02 05:56:49;;;;;;;4.85;2.75;;;24.00;69.90;;;;;;6109999;28;81020;-65
2023/08/02 05:59:50;;;;;;;6.43;2.75;;;24.00;69.80;;;;;;6100759;28;81198;-66
2023/08/02 06:02:50;;;;;;;4.40;2.58;;;23.90;69.60;;;;;;6103495;28;80958;-66
2023/08/02 06:05:51;;;;;;;6.15;2.30;;;23.90;69.60;;;;;;6101616;28;80670;-66
2023/08/02 06:08:51;;;;;;;4.53;3.05;;;23.90;69.30;;;;;;6111503;28;80929;-67
2023/08/02 06:11:52;;;;;;;5.55;2.55;;;23.90;69.20;;;;;;6108565;28;81246;-66
2023/08/02 06:14:52;;;;;;;3.58;2.25;;;23.90;69.10;;;;;;6100793;28;81099;-65
2023/08/02 06:17:53;;;;;;;5.63;2.72;;;23.90;69.00;;;;;;6104708;28;82680;-65
2023/08/02 06:20:53;;;;;;;4.22;2.70;;;23.90;68.90;;;;;;6105721;28;80603;-66
2023/08/02 06:23:54;;;;;;;5.63;2.83;;;23.90;68.70;;;;;;6107787;28;81299;-65
2023/08/02 06:26:54;;;;;;;3.40;2.53;;;23.90;68.70;;;;;;6098189;28;82365;-66
2023/08/02 06:29:55;;;;;;;3.22;2.20;;;23.90;68.70;;;;;;6108014;28;80009;-65
2023/08/02 06:32:55;;;;;;;3.85;3.00;;;23.80;69.30;;;;;;6103408;28;82500;-65
2023/08/02 06:35:56;;;;;;;10.73;3.30;;;23.80;68.40;;;;;;6120626;28;80849;-58
2023/08/02 06:38:56;;;;;;;3.40;2.53;;;23.80;68.40;;;;;;6097755;28;80567;-59
2023/08/02 06:41:57;;;;;;;3.40;2.40;;;23.80;68.40;;;;;;6110859;28;80255;-59
2023/08/02 06:44:57;;;;;;;4.60;2.70;;;23.90;68.50;;;;;;6115289;28;80558;-59
2023/08/02 06:47:58;;;;;;;4.80;2.67;;;23.90;68.40;;;;;;6103871;28;82261;-58
2023/08/02 06:50:58;;;;;;;4.40;2.53;;;23.90;68.40;;;;;;6107275;28;81041;-59
2023/08/02 06:53:59;;;;;;;5.97;2.88;;;23.90;68.50;;;;;;6096564;28;81244;-64
2023/08/02 06:56:59;;;;;;;3.08;2.53;;;23.90;68.40;;;;;;6102248;28;84367;-65
2023/08/02 07:00:00;;;;;;;3.72;2.63;;;23.90;68.70;;;;;;6098581;28;80719;-66
2023/08/02 07:03:00;;;;;;;4.80;2.58;;;23.80;68.80;;;;;;6120556;28;86755;-66
2023/08/02 07:06:01;;;;;;;3.55;2.58;;;23.80;68.60;;;;;;6124455;28;80711;-68
2023/08/02 07:09:01;;;;;;;5.45;3.20;;;23.90;68.80;;;;;;6108431;28;81650;-65
2023/08/02 07:12:02;;;;;;;3.60;2.90;;;23.90;68.70;;;;;;6116853;28;81306;-70
2023/08/02 07:15:03;;;;;;;2.78;2.40;;;23.90;68.70;;;;;;6113355;28;81737;-67
2023/08/02 07:18:03;;;;;;;19.25;3.15;;;23.80;68.90;;;;;;6123966;28;86073;-68
2023/08/02 07:21:04;;;;;;;2.92;2.40;;;23.80;69.20;;;;;;6107484;28;82257;-68
2023/08/02 07:24:05;;;;;;;5.68;3.08;;;23.80;69.00;;;;;;6117957;28;83602;-69
2023/08/02 07:27:05;;;;;;;8.02;2.63;;;23.90;69.00;;;;;;6114789;28;80285;-68
2023/08/02 07:30:06;;;;;;;5.20;3.00;;;23.90;68.50;;;;;;6111307;28;81679;-67
2023/08/02 07:33:06;;;;;;;13.57;3.35;;;23.90;68.70;;;;;;6125427;28;81244;-66
2023/08/02 07:36:07;;;;;;;7.07;3.00;;;24.00;68.40;;;;;;6123107;28;81800;-69
2023/08/02 07:39:07;;;;;;;4.97;2.70;;;24.00;68.20;;;;;;6125654;28;80551;-70
2023/08/02 07:42:08;;;;;;;11.95;3.20;;;23.90;68.00;;;;;;6115227;28;80942;-68
2023/08/02 07:45:08;;;;;;;5.30;3.28;;;23.90;68.20;;;;;;6122692;28;81669;-69
2023/08/02 07:48:09;;;;;;;2.92;2.50;;;23.80;69.20;;;;;;6128112;28;83186;-68
2023/08/02 07:51:09;;;;;;;4.97;2.70;;;23.60;67.70;;;;;;6115899;28;81909;-66
2023/08/02 07:54:10;;;;;;;4.78;2.83;;;23.70;68.50;;;;;;6128144;28;80795;-67
2023/08/02 07:57:10;;;;;;;2.60;2.28;;;23.80;68.00;;;;;;6114315;28;82833;-66
2023/08/02 08:00:11;;;;;;;4.47;2.72;;;23.90;67.50;;;;;;6125116;28;80603;-68
2023/08/02 08:03:14;;;;;;;3.40;2.47;;;23.90;67.80;;;;;;6114854;28;81873;-67
2023/08/02 08:06:15;;;;;;;5.13;2.65;;;23.90;67.80;;;;;;6115506;28;82482;-59
2023/08/02 08:09:20;;;;;;;4.10;2.97;;;23.90;68.10;;;;;;6126932;28;80698;-61
2023/08/02 08:12:21;;;;;;;3.35;2.80;;;24.00;68.20;;;;;;6114906;28;82602;-60
2023/08/02 08:15:21;;;;;;;7.80;2.95;;;23.90;67.60;;;;;;6125536;28;80591;-58
2023/08/02 08:18:22;;;;;;;3.42;2.53;;;23.70;68.70;;;;;;6108152;28;81539;-57
2023/08/02 08:21:22;;;;;;;3.08;2.50;;;23.70;67.40;;;;;;6128701;28;81442;-59
2023/08/02 08:24:23;;;;;;;4.07;3.03;;;23.60;67.60;;;;;;6107749;28;82589;-60
2023/08/02 08:27:23;;;;;;;7.25;3.40;;;23.50;68.60;;;;;;6131195;28;80911;-59
2023/08/02 08:30:24;;;;;;;5.30;2.92;;;23.60;69.00;;;;;;6133267;28;80828;-61
2023/08/02 08:33:24;;;;;;;11.30;2.90;;;23.80;70.20;;;;;;6122906;28;81861;-60
2023/08/02 08:36:26;;;;;;;3.78;2.75;;;23.80;71.80;;;;;;6145477;28;80938;-60
2023/08/02 08:39:26;;;;;;;3.30;2.63;;;23.70;70.10;;;;;;6116422;28;82166;-61
2023/08/02 08:42:27;;;;;;;5.38;3.55;;;23.80;68.50;;;;;;6128079;28;80276;-61
2023/08/02 08:45:27;;;;;;;7.55;3.13;;;23.80;67.30;;;;;;6101161;28;82092;-69
2023/08/02 08:48:28;;;;;;;4.45;2.40;;;23.80;67.30;;;;;;6108132;28;82071;-68
2023/08/02 08:51:28;;;;;;;5.65;2.78;;;23.80;66.90;;;;;;6108941;28;81705;-70
2023/08/02 08:54:29;;;;;;;4.65;3.22;;;23.80;67.00;;;;;;6115768;28;81675;-68
2023/08/02 08:57:29;;;;;;;7.50;2.72;;;24.00;66.70;;;;;;6128359;28;80650;-68
2023/08/02 09:00:31;;;;;;;6.18;2.72;;;24.10;66.20;;;;;;6107421;28;80536;-68
2023/08/02 09:03:31;;;;;;;2.60;2.25;;;24.10;65.40;;;;;;6108134;28;80473;-69
2023/08/02 09:06:32;;;;;;;3.53;2.40;;;24.10;65.60;;;;;;6129777;28;80488;-70
2023/08/02 09:09:34;;;;;;;2.75;2.20;;;24.20;66.20;;;;;;6115865;28;80629;-69
2023/08/02 09:12:35;;;;;;;3.30;2.67;;;24.30;66.50;;;;;;6106010;28;80386;-69
2023/08/02 09:15:35;;;;;;;2.90;2.33;;;24.30;65.20;;;;;;6112749;28;82868;-69
2023/08/02 09:18:36;;;;;;;5.55;2.95;;;24.30;65.10;;;;;;6123829;28;80343;-70
2023/08/02 09:21:36;;;;;;;3.10;2.00;;;24.20;63.70;;;;;;6106904;28;81221;-68
2023/08/02 09:24:37;;;;;;;4.57;2.38;;;24.20;62.50;;;;;;6109245;28;80813;-69
2023/08/02 09:27:38;;;;;;;2.90;1.80;;;24.30;63.00;;;;;;6111594;28;80870;-69
2023/08/02 09:30:40;;;;;;;6.10;2.00;;;24.40;63.70;;;;;;6138252;28;81393;-70
2023/08/02 09:33:40;;;;;;;3.97;2.38;;;24.50;63.20;;;;;;6129215;28;81267;-69
2023/08/02 09:36:41;;;;;;;5.03;2.33;;;24.60;63.20;;;;;;6112807;28;82400;-69
2023/08/02 09:39:41;;;;;;;4.65;2.58;;;24.60;63.30;;;;;;6124656;28;80656;-64
2023/08/02 09:42:42;;;;;;;4.45;2.45;;;24.60;62.90;;;;;;6114094;28;81843;-69
2023/08/02 09:45:42;;;;;;;5.10;2.75;;;24.50;63.30;;;;;;6126261;28;82352;-68
2023/08/02 09:48:43;;;;;;;3.65;2.22;;;24.60;63.20;;;;;;6118415;28;83307;-68
2023/08/02 09:51:43;;;;;;;6.45;2.40;;;24.50;63.10;;;;;;6125186;28;81604;-68
2023/08/02 09:54:44;;;;;;;5.05;2.67;;;24.60;62.70;;;;;;6129688;28;85947;-69
2023/08/02 09:57:44;;;;;;;2.85;2.03;;;24.60;62.80;;;;;;6120577;28;80408;-49
2023/08/02 10:00:45;;;;;;;3.33;2.38;;;24.70;63.00;;;;;;6110047;28;81476;-48
2023/08/02 10:03:45;;;;;;;6.05;2.30;;;24.70;62.70;;;;;;6110273;28;82053;-47
2023/08/02 10:06:46;;;;;;;2.40;2.13;;;24.70;62.80;;;;;;6120553;28;81473;-47
2023/08/02 10:09:46;;;;;;;4.88;2.53;;;24.70;62.80;;;;;;6115321;28;82115;-50
2023/08/02 10:12:47;;;;;;;3.58;2.65;;;24.80;62.80;;;;;;6120050;28;81060;-48
2023/08/02 10:15:47;;;;;;;2.85;2.10;;;24.80;61.90;;;;;;6121838;28;81328;-47
2023/08/02 10:18:48;;;;;;;2.05;1.80;;;24.80;61.30;;;;;;6106541;28;84869;-46
2023/08/02 10:21:48;;;;;;;5.25;2.63;;;24.90;61.00;;;;;;6127789;28;82093;-49
2023/08/02 10:24:49;;;;;;;3.00;2.38;;;24.90;61.30;;;;;;6121699;28;81830;-54
2023/08/02 10:27:49;;;;;;;3.42;1.77;;;25.00;61.70;;;;;;6132751;28;82241;-49
2023/08/02 10:30:50;;;;;;;2.45;1.80;;;25.00;59.50;;;;;;6122085;28;81218;-50
2023/08/02 10:33:50;;;;;;;4.00;1.83;;;25.00;59.70;;;;;;6126958;28;81592;-68
2023/08/02 10:36:51;;;;;;;2.83;2.00;;;25.10;59.70;;;;;;6130684;28;81506;-69
2023/08/02 10:39:52;;;;;;;2.03;1.83;;;25.10;59.10;;;;;;6121836;28;82105;-68
2023/08/02 10:42:52;;;;;;;4.65;2.22;;;25.20;57.70;;;;;;6127382;28;80650;-67
2023/08/02 10:45:53;;;;;;;2.55;1.83;;;25.20;57.60;;;;;;6120277;28;81663;-68
2023/08/02 10:48:54;;;;;;;2.63;1.98;;;25.30;57.60;;;;;;6145407;28;81759;-67
2023/08/02 10:51:56;;;;;;;3.75;2.10;;;25.30;57.90;;;;;;6121270;28;84330;-68
2023/08/02 10:54:57;;;;;;;5.07;1.95;;;25.30;58.00;;;;;;6143817;28;80859;-64
2023/08/02 10:57:58;;;;;;;1.80;1.60;;;25.30;58.20;;;;;;6132792;28;80424;-68
2023/08/02 11:00:58;;;;;;;4.03;1.70;;;25.30;58.60;;;;;;6126839;28;81079;-68
2023/08/02 11:04:00;;;;;;;3.13;2.00;;;25.30;58.70;;;;;;6126263;28;81393;-68
2023/08/02 11:07:01;;;;;;;4.35;1.70;;;25.30;59.20;;;;;;6099606;28;80662;-69
2023/08/02 11:10:02;;;;;;;2.90;1.45;;;25.40;59.50;;;;;;6120311;28;80816;-63
2023/08/02 11:13:03;;;;;;;3.00;1.83;;;25.50;58.30;;;;;;6117903;28;81894;-63
2023/08/02 11:16:03;;;;;;;5.32;1.85;;;25.50;57.50;;;;;;6129936;28;85202;-59
2023/08/02 11:19:04;;;;;;;1.40;1.30;;;25.50;57.60;;;;;;6128831;28;81170;-61
2023/08/02 11:22:06;;;;;;;3.90;1.92;;;25.50;56.90;;;;;;6107171;28;81466;-60
2023/08/02 11:25:07;;;;;;;3.47;1.58;;;25.60;56.40;;;;;;6106702;28;81160;-62
2023/08/02 11:28:07;;;;;;;2.60;1.92;;;25.70;56.20;;;;;;6102511;28;80325;-44
2023/08/02 11:31:08;;;;;;;3.03;1.80;;;25.70;56.00;;;;;;6130061;28;80525;-50
2023/08/02 11:34:10;;;;;;;2.03;1.70;;;25.70;56.30;;;;;;6118396;28;81193;-48
2023/08/02 11:37:10;;;;;;;1.85;1.45;;;25.70;55.00;;;;;;6130997;28;80732;-48
2023/08/02 11:40:11;;;;;;;4.00;1.60;;;25.70;54.80;;;;;;6130548;28;81335;-47
2023/08/02 11:43:14;;;;;;;1.95;1.60;;;25.70;55.10;;;;;;6118266;28;80326;-46
2023/08/02 11:46:15;;;;;;;3.05;1.60;;;25.70;54.70;;;;;;6128416;28;82127;-46
2023/08/02 11:49:15;;;;;;;2.50;1.63;;;25.70;55.00;;;;;;6108326;28;81004;-49
2023/08/02 11:52:16;;;;;;;2.30;1.60;;;25.70;55.30;;;;;;6118197;28;81797;-51
2023/08/02 11:55:17;;;;;;;3.75;1.83;;;25.70;55.70;;;;;;6108652;28;82835;-49
2023/08/02 11:58:18;;;;;;;1.75;1.65;;;25.70;55.90;;;;;;6113180;28;80680;-50
2023/08/02 12:01:18;;;;;;;6.28;2.13;;;25.60;56.30;;;;;;6126513;28;81088;-47
2023/08/02 12:04:19;;;;;;;2.42;1.60;;;25.50;56.40;;;;;;6105975;28;86500;-48
2023/08/02 12:07:19;;;;;;;1.95;1.50;;;25.60;56.70;;;;;;6116637;28;81497;-47
2023/08/02 12:10:20;;;;;;;5.97;1.70;;;25.60;56.80;;;;;;6112039;28;80610;-47
2023/08/02 12:13:20;;;;;;;3.00;1.70;;;25.50;56.70;;;;;;6117168;28;80203;-47
2023/08/02 12:16:21;;;;;;;2.45;1.60;;;25.50;56.90;;;;;;6104422;28;83062;-46
2023/08/02 12:19:21;;;;;;;4.80;1.92;;;25.50;57.00;;;;;;6116852;28;80290;-47
2023/08/02 12:22:22;;;;;;;2.83;1.67;;;25.60;57.10;;;;;;6118220;28;83321;-48
2023/08/02 12:25:22;;;;;;;2.25;1.75;;;25.70;57.20;;;;;;6111458;28;80840;-58
2023/08/02 12:28:23;;;;;;;3.03;1.83;;;25.70;57.50;;;;;;6117247;28;80939;-58
2023/08/02 12:31:23;;;;;;;3.40;1.70;;;25.80;56.90;;;;;;6115823;28;81128;-59
2023/08/02 12:34:24;;;;;;;3.17;1.88;;;25.80;56.50;;;;;;6116446;28;81082;-57
2023/08/02 12:37:24;;;;;;;4.05;1.80;;;25.90;56.80;;;;;;6114622;28;80539;-58
2023/08/02 12:40:25;;;;;;;2.38;1.80;;;25.80;56.40;;;;;;6126224;28;80289;-57
2023/08/02 12:43:25;;;;;;;3.22;1.90;;;25.80;55.80;;;;;;6123380;28;82140;-57
2023/08/02 12:46:26;;;;;;;3.72;2.05;;;25.90;55.70;;;;;;6110931;28;82637;-56
2023/08/02 12:49:26;;;;;;;5.55;2.92;;;25.80;55.70;;;;;;6131998;28;80832;-58
2023/08/02 12:52:27;;;;;;;2.20;1.85;;;25.80;55.20;;;;;;6115275;28;81813;-58
2023/08/02 12:55:27;;;;;;;2.72;2.05;;;25.70;54.90;;;;;;6122458;28;80595;-57
2023/08/02 12:58:29;;;;;;;4.63;2.22;;;25.70;54.90;;;;;;6105960;28;82083;-57
2023/08/02 13:01:30;;;;;;;5.07;2.08;;;25.70;55.00;;;;;;6132254;28;81674;-48
2023/08/02 13:04:30;;;;;;;2.40;1.67;;;25.70;55.30;;;;;;6114136;28;83624;-49
2023/08/02 13:07:31;;;;;;;1.67;1.58;;;25.70;55.70;;;;;;6105075;28;81625;-48
2023/08/02 13:10:32;;;;;;;1.88;1.70;;;25.70;55.30;;;;;;6132657;28;80830;-47
2023/08/02 13:13:32;;;;;;;2.35;1.60;;;25.70;55.40;;;;;;6097345;28;82541;-47
2023/08/02 13:16:33;;;;;;;5.55;1.75;;;25.70;55.50;;;;;;6106696;28;81424;-47
2023/08/02 13:19:33;;;;;;;2.17;1.80;;;25.70;56.00;;;;;;6096722;28;81017;-48
2023/08/02 13:22:34;;;;;;;2.50;1.55;;;25.70;56.10;;;;;;6120793;28;83347;-47
2023/08/02 13:25:34;;;;;;;7.45;1.73;;;25.70;56.10;;;;;;6134226;28;80768;-47
2023/08/02 13:28:35;;;;;;;3.03;1.90;;;25.70;56.00;;;;;;6111543;28;82307;-46
2023/08/02 13:31:35;;;;;;;3.88;1.48;;;25.70;55.70;;;;;;6124793;28;80355;-47
2023/08/02 13:34:37;;;;;;;4.18;1.77;;;25.80;55.30;;;;;;6114836;28;80635;-49
2023/08/02 13:37:38;;;;;;;2.53;1.70;;;25.80;54.30;;;;;;6123960;28;80255;-50
2023/08/02 13:40:38;;;;;;;3.35;1.67;;;25.80;54.40;;;;;;6104275;28;82430;-47
2023/08/02 13:43:39;;;;;;;2.50;1.70;;;25.80;54.70;;;;;;6122263;28;81781;-47
2023/08/02 13:46:40;;;;;;;2.10;1.58;;;25.80;53.50;;;;;;6116108;28;80860;-50
2023/08/02 13:49:40;;;;;;;5.88;2.10;;;25.90;52.70;;;;;;6099970;28;83785;-48
2023/08/02 13:52:41;;;;;;;1.88;1.35;;;25.90;51.10;;;;;;6121282;28;80524;-47
2023/08/02 13:55:41;;;;;;;3.17;1.33;;;26.00;51.30;;;;;;6110720;28;81837;-69
2023/08/02 13:58:42;;;;;;;2.30;1.30;;;26.00;51.50;;;;;;6120081;28;80176;-67
2023/08/02 14:01:42;;;;;;;2.83;1.70;;;26.00;51.90;;;;;;6124699;28;82132;-69
2023/08/02 14:04:43;;;;;;;1.77;1.30;;;26.00;51.00;;;;;;6115160;28;80557;-68
2023/08/02 14:07:44;;;;;;;2.58;1.33;;;25.90;50.10;;;;;;6135156;28;81677;-68
2023/08/02 14:10:46;;;;;;;1.95;1.80;;;26.00;49.30;;;;;;6124584;28;81422;-68
2023/08/02 14:13:46;;;;;;;1.85;1.35;;;26.00;49.20;;;;;;6140981;28;80421;-51
2023/08/02 14:16:47;;;;;;;1.98;1.55;;;26.00;48.80;;;;;;6116186;28;82133;-50
2023/08/02 14:19:48;;;;;;;13.35;1.33;;;26.00;49.10;;;;;;6132387;28;81131;-48
2023/08/02 14:22:48;;;;;;;2.45;1.65;;;26.10;49.00;;;;;;6120194;28;81612;-52
2023/08/02 14:25:49;;;;;;;5.20;1.30;;;26.10;49.00;;;;;;6127210;28;81828;-51
2023/08/02 14:28:50;;;;;;;2.88;1.38;;;26.00;48.80;;;;;;6130970;28;81253;-48
2023/08/02 14:31:50;;;;;;;2.90;1.30;;;26.00;48.10;;;;;;6120494;28;81670;-68
2023/08/02 14:34:51;;;;;;;1.77;1.20;;;26.00;47.80;;;;;;6122563;28;80808;-68
2023/08/02 14:37:51;;;;;;;1.83;1.20;;;26.10;48.20;;;;;;6121084;28;82482;-66
2023/08/02 14:40:52;;;;;;;4.30;1.15;;;26.10;48.40;;;;;;6125391;28;80798;-67
2023/08/02 14:43:52;;;;;;;1.40;1.30;;;26.00;47.80;;;;;;6110781;28;80502;-67
2023/08/02 14:46:53;;;;;;;1.60;1.20;;;26.10;47.80;;;;;;6107673;28;80956;-69
2023/08/02 14:49:53;;;;;;;1.95;1.40;;;26.00;47.80;;;;;;6107571;28;81224;-67
2023/08/02 14:52:54;;;;;;;1.20;1.10;;;26.10;48.00;;;;;;6106279;28;81554;-60
2023/08/02 14:55:55;;;;;;;2.08;1.30;;;26.00;47.90;;;;;;6120546;28;81264;-62
2023/08/02 14:58:56;;;;;;;5.00;1.48;;;26.00;48.10;;;;;;6121338;28;80508;-61
2023/08/02 15:01:57;;;;;;;1.50;1.38;;;26.00;48.10;;;;;;6133961;28;84036;-60
2023/08/02 15:04:58;;;;;;;1.85;1.30;;;26.00;47.90;;;;;;6114083;28;81814;-61
2023/08/02 15:07:58;;;;;;;7.13;1.52;;;26.00;48.50;;;;;;6115770;28;80479;-61
2023/08/02 15:10:59;;;;;;;5.43;1.95;;;26.00;48.50;;;;;;6119231;28;86818;-69
2023/08/02 15:13:59;;;;;;;1.88;1.65;;;26.00;48.20;;;;;;6122771;28;80636;-68
2023/08/02 15:17:00;;;;;;;3.50;1.73;;;26.00;48.20;;;;;;6132706;28;81056;-68
2023/08/02 15:20:00;;;;;;;3.13;1.55;;;26.00;48.50;;;;;;6131058;28;80503;-69
2023/08/02 15:23:01;;;;;;;4.30;1.58;;;25.90;48.10;;;;;;6132725;28;81862;-68
2023/08/02 15:26:02;;;;;;;3.17;1.55;;;25.90;47.90;;;;;;6118770;28;80607;-69
2023/08/02 15:29:03;;;;;;;4.72;1.60;;;25.90;48.00;;;;;;6127100;28;81712;-52
2023/08/02 15:32:03;;;;;;;2.35;1.40;;;25.90;48.30;;;;;;6128105;28;80846;-47
2023/08/02 15:35:04;;;;;;;4.05;1.30;;;25.90;49.40;;;;;;6119841;28;82296;-51
2023/08/02 15:38:04;;;;;;;3.17;1.65;;;25.90;48.70;;;;;;6144112;28;84854;-52